createdAt,value
2018-07-23T00:00:06.352Z,62.03
2018-07-23T00:02:35.456Z,62.24
2018-07-23T00:05:04.568Z,62.87
2018-07-23T00:07:33.676Z,63.30
2018-07-23T00:10:02.778Z,63.98
2018-07-23T00:12:31.887Z,64.10
2018-07-23T00:15:00.980Z,63.79
2018-07-23T00:17:30.044Z,63.37
2018-07-23T00:19:59.136Z,62.58
2018-07-23T00:22:28.208Z,62.24
2018-07-23T00:24:57.316Z,62.74
2018-07-23T00:27:26.387Z,62.50
2018-07-23T00:29:55.480Z,62.33
2018-07-23T00:32:24.556Z,63.12
2018-07-23T00:34:53.659Z,63.76
2018-07-23T00:37:22.752Z,64.01
2018-07-23T00:39:51.843Z,64.24
2018-07-23T00:42:20.983Z,64.24
2018-07-23T00:44:50.122Z,64.12
2018-07-23T00:47:19.208Z,64.04
2018-07-23T00:49:48.315Z,63.42
2018-07-23T00:52:17.381Z,63.44
2018-07-23T00:54:46.464Z,63.78
2018-07-23T00:57:15.580Z,64.27
2018-07-23T00:59:44.695Z,64.45
2018-07-23T01:02:13.839Z,64.60
2018-07-23T01:04:42.924Z,64.98
2018-07-23T01:07:12.004Z,65.00
2018-07-23T01:09:41.155Z,64.99
2018-07-23T01:12:10.223Z,64.84
2018-07-23T01:14:39.319Z,65.00
2018-07-23T01:17:08.404Z,64.48
2018-07-23T01:19:37.520Z,63.70
2018-07-23T01:22:06.588Z,63.39
2018-07-23T01:24:35.673Z,63.45
2018-07-23T01:27:04.779Z,63.79
2018-07-23T01:29:33.895Z,63.80
2018-07-23T01:32:02.968Z,64.65
2018-07-23T01:34:32.076Z,64.93
2018-07-23T01:37:01.168Z,65.28
2018-07-23T01:39:30.259Z,65.51
2018-07-23T01:41:59.323Z,65.22
2018-07-23T01:44:28.416Z,65.55
2018-07-23T01:46:57.568Z,65.91
2018-07-23T01:49:33.451Z,66.19
2018-07-23T01:52:02.523Z,66.23
2018-07-23T01:54:31.631Z,65.63
2018-07-23T01:57:00.801Z,64.95
2018-07-23T01:59:29.878Z,64.66
2018-07-23T02:01:58.975Z,64.46
2018-07-23T02:04:28.097Z,64.76
2018-07-23T02:06:57.192Z,65.54
2018-07-23T02:09:26.271Z,65.49
2018-07-23T02:11:55.412Z,66.26
2018-07-23T02:14:24.485Z,66.67
2018-07-23T02:16:53.576Z,66.37
2018-07-23T02:19:22.673Z,66.55
2018-07-23T02:21:51.792Z,67.00
2018-07-23T02:24:20.879Z,67.60
2018-07-23T02:26:50.011Z,68.02
2018-07-23T02:29:19.095Z,68.28
2018-07-23T02:31:48.269Z,68.87
2018-07-23T02:34:17.357Z,68.58
2018-07-23T02:36:46.453Z,68.01
2018-07-23T02:39:15.550Z,67.89
2018-07-23T02:41:44.653Z,68.74
2018-07-23T02:44:13.744Z,68.90
2018-07-23T02:46:42.844Z,68.46
2018-07-23T02:49:11.933Z,69.02
2018-07-23T02:51:41.079Z,68.39
2018-07-23T02:54:10.164Z,68.18
2018-07-23T02:56:39.267Z,68.34
2018-07-23T02:59:08.385Z,67.63
2018-07-23T03:01:37.481Z,66.59
2018-07-23T03:04:06.624Z,67.56
2018-07-23T03:06:35.730Z,67.35
2018-07-23T03:09:07.034Z,66.45
2018-07-23T03:11:36.247Z,66.78
2018-07-23T03:14:05.342Z,67.36
2018-07-23T03:16:34.441Z,67.69
2018-07-23T03:19:03.536Z,68.00
2018-07-23T03:21:33.107Z,67.25
2018-07-23T03:24:02.189Z,67.29
2018-07-23T03:26:31.328Z,67.95
2018-07-23T03:29:00.524Z,68.74
2018-07-23T03:31:29.728Z,69.13
2018-07-23T03:33:58.808Z,69.48
2018-07-23T03:36:27.920Z,69.69
2018-07-23T03:38:56.983Z,70.00
2018-07-23T03:41:26.080Z,70.21
2018-07-23T03:43:55.210Z,70.23
2018-07-23T03:46:25.128Z,70.49
2018-07-23T03:48:54.212Z,70.66
2018-07-23T03:51:23.372Z,70.22
2018-07-23T03:53:52.445Z,70.07
2018-07-23T03:56:21.549Z,69.55
2018-07-23T03:58:50.656Z,69.45
2018-07-23T04:01:19.788Z,69.00
2018-07-23T04:03:48.893Z,70.12
2018-07-23T04:06:18.009Z,69.70
2018-07-23T04:08:47.104Z,69.77
2018-07-23T04:11:17.204Z,70.79
2018-07-23T04:13:46.284Z,70.78
2018-07-23T04:16:15.392Z,71.14
2018-07-23T04:18:44.464Z,70.65
2018-07-23T04:21:13.600Z,70.60
2018-07-23T04:23:42.676Z,69.93
2018-07-23T04:26:11.789Z,69.92
2018-07-23T04:28:40.892Z,69.07
2018-07-23T04:31:09.992Z,68.32
2018-07-23T04:33:39.102Z,68.86
2018-07-23T04:36:08.459Z,68.92
2018-07-23T04:38:37.540Z,69.26
2018-07-23T04:41:06.729Z,70.18
2018-07-23T04:43:35.819Z,70.69
2018-07-23T04:46:04.904Z,70.00
2018-07-23T04:48:34.485Z,69.99
2018-07-23T04:51:03.620Z,69.97
2018-07-23T04:53:32.796Z,69.39
2018-07-23T04:56:02.181Z,69.32
2018-07-23T04:58:31.361Z,69.04
2018-07-23T05:01:01.436Z,69.14
2018-07-23T05:03:30.577Z,70.39
2018-07-23T05:05:59.684Z,69.66
2018-07-23T05:08:28.800Z,69.35
2018-07-23T05:10:57.884Z,68.83
2018-07-23T05:13:26.986Z,68.93
2018-07-23T05:15:56.164Z,68.04
2018-07-23T05:18:25.208Z,66.90
2018-07-23T05:20:54.280Z,66.55
2018-07-23T05:23:23.399Z,66.09
2018-07-23T05:25:53.372Z,66.47
2018-07-23T05:28:22.464Z,67.60
2018-07-23T05:30:51.652Z,67.86
2018-07-23T05:33:20.772Z,67.52
2018-07-23T05:35:49.883Z,68.30
2018-07-23T05:38:18.993Z,67.35
2018-07-23T05:40:48.065Z,67.35
2018-07-23T05:43:17.168Z,67.80
2018-07-23T05:45:46.267Z,67.52
2018-07-23T05:48:15.368Z,67.04
2018-07-23T06:01:35.880Z,68.29
2018-07-23T06:04:05.061Z,67.40
2018-07-23T06:06:34.194Z,66.33
2018-07-23T06:09:03.681Z,65.47
2018-07-23T06:11:32.756Z,65.76
2018-07-23T06:14:01.865Z,64.73
2018-07-23T06:16:31.050Z,64.46
2018-07-23T06:19:00.184Z,63.40
2018-07-23T06:21:29.462Z,62.93
2018-07-23T06:23:58.556Z,61.72
2018-07-23T06:26:27.648Z,61.47
2018-07-23T06:28:56.855Z,61.37
2018-07-23T06:31:25.951Z,60.94
2018-07-23T06:33:55.106Z,61.00
2018-07-23T06:36:24.179Z,60.34
2018-07-23T06:38:53.323Z,59.90
2018-07-23T06:41:22.424Z,59.78
2018-07-23T06:43:51.572Z,58.80
2018-07-23T06:46:20.952Z,58.66
2018-07-23T06:48:50.056Z,58.72
2018-07-23T06:51:19.144Z,57.74
2018-07-23T06:53:48.260Z,57.92
2018-07-23T06:56:17.344Z,56.71
2018-07-23T06:58:46.440Z,56.30
2018-07-23T07:01:15.516Z,55.75
2018-07-23T07:03:44.623Z,55.69
2018-07-23T07:06:13.735Z,56.01
2018-07-23T07:08:42.828Z,56.00
2018-07-23T07:11:11.948Z,55.15
2018-07-23T07:13:41.041Z,55.77
2018-07-23T07:16:10.128Z,53.98
2018-07-23T07:18:39.288Z,53.97
2018-07-23T07:21:08.495Z,52.54
2018-07-23T07:23:37.612Z,53.96
2018-07-23T07:26:06.737Z,53.39
2018-07-23T07:28:35.900Z,53.29
2018-07-23T07:31:04.988Z,52.33
2018-07-23T07:33:34.124Z,52.75
2018-07-23T07:36:03.248Z,52.13
2018-07-23T07:38:33.404Z,51.30
2018-07-23T07:41:03.082Z,51.63
2018-07-23T07:43:32.180Z,50.57
2018-07-23T07:46:01.276Z,51.34
2018-07-23T07:48:30.397Z,50.13
2018-07-23T07:50:59.487Z,51.22
2018-07-23T07:53:28.603Z,50.31
2018-07-23T07:55:57.664Z,50.46
2018-07-23T07:58:26.778Z,50.41
2018-07-23T08:00:55.897Z,50.63
2018-07-23T08:03:25.051Z,49.79
2018-07-23T08:05:54.133Z,48.45
2018-07-23T08:08:23.229Z,48.68
2018-07-23T08:10:52.322Z,48.94
2018-07-23T08:13:21.449Z,48.71
2018-07-23T08:15:50.556Z,48.89
2018-07-23T08:18:19.639Z,47.88
2018-07-23T08:20:48.748Z,46.90
2018-07-23T08:23:17.893Z,47.56
2018-07-23T08:25:47.004Z,46.99
2018-07-23T08:28:16.100Z,45.97
2018-07-23T08:30:45.228Z,46.79
2018-07-23T08:33:14.405Z,47.01
2018-07-23T08:35:43.661Z,47.02
2018-07-23T08:38:13.553Z,46.66
2018-07-23T08:40:43.141Z,44.93
2018-07-23T08:43:12.285Z,44.87
2018-07-23T08:45:41.396Z,45.51
2018-07-23T08:48:10.464Z,44.74
2018-07-23T08:50:39.576Z,45.15
2018-07-23T08:53:12.116Z,43.48
2018-07-23T08:55:41.573Z,43.63
2018-07-23T08:58:10.659Z,44.38
2018-07-23T09:00:39.859Z,43.30
2018-07-23T09:03:10.275Z,43.20
2018-07-23T09:05:39.899Z,43.78
2018-07-23T09:09:03.097Z,44.35
2018-07-23T09:11:32.264Z,43.50
2018-07-23T09:14:01.517Z,45.06
2018-07-23T09:16:30.600Z,44.50
2018-07-23T09:18:59.720Z,44.42
2018-07-23T09:21:28.832Z,43.55
2018-07-23T09:23:57.948Z,43.63
2018-07-23T09:26:27.176Z,43.23
2018-07-23T09:28:56.281Z,43.99
2018-07-23T09:31:25.392Z,43.93
2018-07-23T09:33:54.496Z,44.38
2018-07-23T09:36:23.605Z,43.87
2018-07-23T09:38:52.684Z,43.51
2018-07-23T09:41:21.798Z,43.65
2018-07-23T09:43:50.905Z,43.08
2018-07-23T09:46:20.000Z,43.75
2018-07-23T09:48:49.067Z,43.09
2018-07-23T09:51:18.804Z,43.69
2018-07-23T09:53:47.920Z,42.17
2018-07-23T09:56:17.020Z,43.25
2018-07-23T09:58:46.095Z,41.99
2018-07-23T10:01:18.261Z,42.44
2018-07-23T10:03:47.742Z,42.13
2018-07-23T10:06:16.849Z,42.74
2018-07-23T10:08:45.977Z,43.91
2018-07-23T10:11:15.120Z,42.63
2018-07-23T10:13:44.227Z,41.76
2018-07-23T10:16:13.337Z,43.03
2018-07-23T10:18:42.748Z,42.19
2018-07-23T10:21:11.876Z,42.41
2018-07-23T10:23:40.979Z,42.33
2018-07-23T10:26:10.160Z,41.34
2018-07-23T10:28:39.403Z,40.29
2018-07-23T10:31:08.642Z,40.94
2018-07-23T10:33:37.759Z,41.25
2018-07-23T10:36:06.900Z,39.92
2018-07-23T10:38:36.000Z,39.78
2018-07-23T10:41:05.159Z,40.54
2018-07-23T10:43:34.286Z,41.39
2018-07-23T10:46:03.419Z,40.76
2018-07-23T10:48:32.585Z,39.34
2018-07-23T10:51:01.798Z,41.26
2018-07-23T10:53:30.859Z,40.94
2018-07-23T10:55:59.951Z,40.25
2018-07-23T10:58:29.058Z,40.53
2018-07-23T11:00:58.156Z,39.07
2018-07-23T11:03:27.257Z,40.35
2018-07-23T11:05:56.348Z,40.95
2018-07-23T11:08:26.005Z,39.58
2018-07-23T11:10:55.098Z,38.54
2018-07-23T11:13:24.184Z,39.40
2018-07-23T11:15:53.272Z,39.23
2018-07-23T11:18:22.993Z,38.97
2018-07-23T11:20:52.179Z,38.87
2018-07-23T11:23:21.371Z,38.55
2018-07-23T11:25:50.488Z,38.77
2018-07-23T11:28:19.729Z,38.32
2018-07-23T11:30:48.865Z,39.18
2018-07-23T11:33:19.070Z,37.99
2018-07-23T11:35:48.172Z,38.16
2018-07-23T11:38:17.236Z,36.30
2018-07-23T11:40:46.408Z,37.72
2018-07-23T11:43:15.496Z,39.00
2018-07-23T11:45:44.593Z,37.59
2018-07-23T11:48:13.737Z,35.47
2018-07-23T11:50:42.922Z,34.38
2018-07-23T11:53:11.900Z,36.55
2018-07-23T11:55:41.092Z,36.05
2018-07-23T11:58:10.893Z,36.36
2018-07-23T12:00:40.908Z,37.07
2018-07-23T12:03:10.038Z,37.95
2018-07-23T12:05:39.137Z,37.75
2018-07-23T12:08:08.284Z,36.65
2018-07-23T12:10:37.432Z,36.20
2018-07-23T12:13:07.066Z,36.83
2018-07-23T12:15:36.236Z,35.75
2018-07-23T12:18:05.945Z,36.48
2018-07-23T12:20:35.352Z,37.47
2018-07-23T12:23:04.530Z,38.84
2018-07-23T12:25:33.636Z,37.96
2018-07-23T12:28:02.748Z,38.09
2018-07-23T12:30:31.883Z,35.78
2018-07-23T12:33:01.097Z,34.78
2018-07-23T12:35:30.179Z,36.14
2018-07-23T12:37:59.275Z,36.02
2018-07-23T12:40:28.372Z,35.56
2018-07-23T12:42:57.487Z,36.54
2018-07-23T12:45:26.548Z,35.24
2018-07-23T12:47:55.656Z,33.72
2018-07-23T12:50:24.737Z,32.82
2018-07-23T12:52:53.840Z,33.98
2018-07-23T12:55:23.304Z,33.38
2018-07-23T12:57:52.519Z,34.82
2018-07-23T13:00:21.590Z,35.29
2018-07-23T13:02:50.807Z,34.69
2018-07-23T13:05:19.976Z,34.95
2018-07-23T13:07:49.060Z,34.51
2018-07-23T13:10:18.203Z,34.34
2018-07-23T13:12:47.299Z,34.27
2018-07-23T13:15:16.391Z,33.86
2018-07-23T13:17:45.556Z,34.70
2018-07-23T13:20:14.632Z,34.75
2018-07-23T13:22:43.732Z,34.59
2018-07-23T13:25:12.833Z,34.40
2018-07-23T13:27:41.956Z,34.99
2018-07-23T13:30:11.030Z,34.23
2018-07-23T13:32:40.165Z,34.83
2018-07-23T13:35:09.255Z,34.56
2018-07-23T13:37:38.712Z,35.49
2018-07-23T13:40:07.782Z,35.73
2018-07-23T13:42:36.931Z,35.11
2018-07-23T13:45:06.224Z,34.96
2018-07-23T13:47:35.321Z,34.83
2018-07-23T13:50:04.500Z,35.03
2018-07-23T13:52:33.616Z,34.68
2018-07-23T13:55:02.708Z,34.53
2018-07-23T13:57:31.991Z,34.46
2018-07-23T14:00:01.192Z,34.82
2018-07-23T14:02:31.432Z,34.52
2018-07-23T14:05:00.500Z,33.85
2018-07-23T14:07:29.593Z,35.09
2018-07-23T14:09:58.720Z,34.21
2018-07-23T14:12:27.816Z,35.51
2018-07-23T14:14:56.919Z,34.46
2018-07-23T14:17:26.085Z,33.76
2018-07-23T14:19:55.269Z,34.03
2018-07-23T14:22:24.511Z,34.57
2018-07-23T14:24:53.540Z,34.17
2018-07-23T14:27:22.915Z,34.05
2018-07-23T14:29:52.008Z,35.25
2018-07-23T14:32:21.261Z,34.78
2018-07-23T14:34:50.353Z,34.30
2018-07-23T14:37:19.479Z,34.13
2018-07-23T14:39:48.592Z,34.65
2018-07-23T14:42:17.684Z,35.04
2018-07-23T14:44:46.776Z,34.88
2018-07-23T14:47:15.867Z,35.62
2018-07-23T14:49:45.022Z,35.65
2018-07-23T14:52:14.108Z,34.98
2018-07-23T14:54:43.299Z,35.28
2018-07-23T14:57:12.400Z,34.14
2018-07-23T14:59:41.611Z,34.04
2018-07-23T15:02:10.848Z,34.61
2018-07-23T15:04:39.987Z,33.51
2018-07-23T15:07:09.263Z,35.20
2018-07-23T15:09:38.608Z,34.85
2018-07-23T15:12:07.771Z,34.85
2018-07-23T15:14:37.942Z,34.80
2018-07-23T15:17:07.022Z,33.77
2018-07-23T15:19:36.122Z,33.56
2018-07-23T15:22:05.292Z,34.41
2018-07-23T15:24:34.704Z,33.98
2018-07-23T15:27:03.883Z,33.49
2018-07-23T15:29:33.004Z,33.76
2018-07-23T15:32:02.108Z,33.94
2018-07-23T15:34:31.729Z,34.59
2018-07-23T15:37:00.812Z,34.13
2018-07-23T15:39:29.956Z,33.57
2018-07-23T15:41:59.164Z,33.85
2018-07-23T15:44:28.513Z,34.21
2018-07-23T15:46:57.532Z,34.84
2018-07-23T15:49:26.640Z,33.84
2018-07-23T15:51:55.801Z,33.86
2018-07-23T15:54:25.014Z,34.19
2018-07-23T15:56:54.125Z,34.19
2018-07-23T15:59:24.278Z,33.57
2018-07-23T16:01:54.541Z,34.83
2018-07-23T16:04:24.960Z,34.19
2018-07-23T16:06:54.111Z,35.72
2018-07-23T16:09:23.260Z,35.29
2018-07-23T16:11:52.361Z,34.57
2018-07-23T16:14:21.514Z,34.35
2018-07-23T16:16:50.621Z,33.80
2018-07-23T16:19:19.748Z,34.37
2018-07-23T16:21:48.865Z,33.99
2018-07-23T16:24:18.004Z,34.46
2018-07-23T16:26:47.098Z,32.11
2018-07-23T16:29:16.780Z,33.50
2018-07-23T16:31:45.873Z,34.29
2018-07-23T16:34:14.995Z,34.88
2018-07-23T16:36:44.116Z,34.07
2018-07-23T16:39:14.316Z,34.72
2018-07-23T16:41:43.668Z,35.17
2018-07-23T16:44:12.764Z,34.75
2018-07-23T16:46:41.855Z,34.37
2018-07-23T16:49:10.928Z,33.82
2018-07-23T16:51:40.032Z,34.81
2018-07-23T16:54:09.151Z,35.08
2018-07-23T16:56:38.236Z,34.99
2018-07-23T16:59:07.331Z,35.13
2018-07-23T17:01:36.428Z,35.04
2018-07-23T17:04:05.683Z,35.06
2018-07-23T17:06:34.863Z,35.54
2018-07-23T17:09:05.826Z,35.68
2018-07-23T17:11:34.956Z,35.41
2018-07-23T17:14:04.100Z,35.90
2018-07-23T17:16:33.207Z,35.56
2018-07-23T17:19:03.596Z,35.93
2018-07-23T17:21:32.728Z,35.95
2018-07-23T17:24:01.930Z,36.24
2018-07-23T17:26:31.169Z,35.98
2018-07-23T17:29:00.294Z,36.31
2018-07-23T17:31:29.421Z,35.67
2018-07-23T17:33:58.500Z,34.75
2018-07-23T17:36:27.664Z,35.54
2018-07-23T17:38:56.792Z,35.20
2018-07-23T17:41:25.951Z,35.65
2018-07-23T17:43:55.044Z,35.56
2018-07-23T17:46:24.199Z,36.13
2018-07-23T17:48:53.895Z,35.92
2018-07-23T17:51:22.985Z,35.23
2018-07-23T17:53:52.080Z,35.92
2018-07-23T17:56:21.209Z,36.31
2018-07-23T17:58:50.332Z,35.83
2018-07-23T18:01:19.623Z,35.48
2018-07-23T18:03:48.719Z,35.71
2018-07-23T18:06:17.830Z,35.65
2018-07-23T18:08:47.639Z,36.10
2018-07-23T18:11:17.186Z,36.73
2018-07-23T18:13:46.224Z,36.50
2018-07-23T18:16:15.344Z,36.66
2018-07-23T18:18:44.425Z,36.21
2018-07-23T18:21:13.519Z,37.30
2018-07-23T18:23:42.605Z,36.68
2018-07-23T18:26:11.704Z,36.86
2018-07-23T18:28:40.886Z,36.84
2018-07-23T18:31:09.944Z,36.98
2018-07-23T18:33:39.531Z,37.12
2018-07-23T18:36:08.620Z,36.98
2018-07-23T18:38:37.824Z,37.96
2018-07-23T18:41:06.916Z,39.04
2018-07-23T18:43:36.008Z,39.59
2018-07-23T18:46:05.156Z,39.28
2018-07-23T18:49:44.023Z,40.51
2018-07-23T18:52:13.808Z,41.31
2018-07-23T18:54:44.140Z,41.12
2018-07-23T18:57:13.235Z,40.75
2018-07-23T18:59:42.371Z,40.82
2018-07-23T19:02:13.088Z,40.87
2018-07-23T19:04:42.204Z,41.02
2018-07-23T19:07:11.316Z,41.15
2018-07-23T19:09:40.400Z,42.00
2018-07-23T19:12:09.956Z,43.24
2018-07-23T19:14:39.073Z,44.02
2018-07-23T19:17:09.476Z,43.92
2018-07-23T19:19:38.627Z,45.18
2018-07-23T19:22:07.736Z,45.52
2018-07-23T19:24:36.832Z,45.16
2018-07-23T19:27:06.203Z,45.24
2018-07-23T19:29:35.286Z,45.19
2018-07-23T19:32:04.475Z,45.93
2018-07-23T19:34:33.564Z,45.76
2018-07-23T19:37:02.652Z,45.83
2018-07-23T19:39:31.756Z,46.27
2018-07-23T19:42:00.944Z,47.17
2018-07-23T19:44:29.959Z,47.72
2018-07-23T19:46:59.023Z,46.92
2018-07-23T19:49:28.126Z,47.41
2018-07-23T19:51:57.206Z,47.68
2018-07-23T19:54:26.312Z,47.37
2018-07-23T19:56:56.028Z,47.57
2018-07-23T19:59:25.196Z,48.06
2018-07-23T20:01:54.283Z,47.29
2018-07-23T20:04:23.420Z,47.37
2018-07-23T20:06:52.500Z,48.19
2018-07-23T20:09:21.629Z,48.47
2018-07-23T20:11:50.723Z,48.48
2018-07-23T20:14:19.840Z,49.59
2018-07-23T20:16:48.920Z,49.89
2018-07-23T20:19:18.054Z,50.04
2018-07-23T20:21:47.137Z,50.72
2018-07-23T20:24:16.280Z,50.51
2018-07-23T20:26:45.392Z,50.63
2018-07-23T20:29:14.488Z,51.54
2018-07-23T20:31:43.592Z,52.26
2018-07-23T20:34:12.670Z,52.90
2018-07-23T20:36:41.768Z,52.49
2018-07-23T20:39:10.872Z,52.59
2018-07-23T20:41:40.003Z,52.25
2018-07-23T20:44:09.287Z,53.05
2018-07-23T20:46:38.424Z,53.61
2018-07-23T20:49:07.617Z,53.70
2018-07-23T20:51:36.740Z,53.46
2018-07-23T20:54:05.891Z,53.45
2018-07-23T20:56:35.036Z,52.66
2018-07-23T20:59:04.104Z,52.57
2018-07-23T21:01:33.255Z,52.72
2018-07-23T21:04:02.377Z,52.94
2018-07-23T21:06:31.577Z,52.38
2018-07-23T21:09:00.612Z,52.58
2018-07-23T21:11:29.688Z,53.00
2018-07-23T21:13:58.826Z,53.80
2018-07-23T21:16:27.893Z,54.23
2018-07-23T21:18:57.004Z,54.33
2018-07-23T21:21:26.101Z,53.76
2018-07-23T21:23:55.223Z,53.56
2018-07-23T21:26:24.291Z,54.01
2018-07-23T21:28:53.380Z,54.46
2018-07-23T21:31:22.471Z,54.36
2018-07-23T21:33:52.203Z,53.55
2018-07-23T21:36:21.321Z,53.82
2018-07-23T21:38:50.442Z,54.09
2018-07-23T21:41:20.825Z,54.15
2018-07-23T21:43:50.028Z,54.94
2018-07-23T21:46:19.157Z,55.38
2018-07-23T21:48:48.668Z,55.40
2018-07-23T21:51:17.774Z,54.91
2018-07-23T21:53:46.859Z,54.07
2018-07-23T21:56:15.963Z,54.69
2018-07-23T21:58:45.077Z,54.14
2018-07-23T22:01:14.169Z,54.83
2018-07-23T22:03:43.318Z,54.47
2018-07-23T22:06:12.384Z,54.86
2018-07-23T22:08:41.484Z,56.21
2018-07-23T22:11:10.891Z,55.56
2018-07-23T22:13:39.980Z,55.00
2018-07-23T22:16:09.084Z,55.23
2018-07-23T22:18:38.180Z,55.27
2018-07-23T22:21:07.269Z,54.71
2018-07-23T22:23:36.362Z,54.89
2018-07-23T22:26:06.101Z,54.79
2018-07-23T22:28:35.252Z,55.19
2018-07-23T22:31:04.363Z,55.87
2018-07-23T22:33:33.427Z,56.36
2018-07-23T22:36:02.564Z,55.67
2018-07-23T22:38:31.669Z,56.20
2018-07-23T22:41:00.760Z,56.48
2018-07-23T22:43:29.857Z,56.56
2018-07-23T22:45:58.975Z,56.51
2018-07-23T22:48:28.055Z,56.93
2018-07-23T22:50:57.140Z,56.98
2018-07-23T22:53:26.219Z,57.69
2018-07-23T22:55:55.315Z,57.62
2018-07-23T22:58:24.389Z,57.87
2018-07-23T23:00:53.560Z,57.81
2018-07-23T23:03:22.652Z,57.23
2018-07-23T23:05:51.784Z,57.66
2018-07-23T23:08:20.844Z,57.54
2018-07-23T23:10:49.952Z,57.49
2018-07-23T23:13:19.092Z,57.50
2018-07-23T23:15:48.216Z,57.86
2018-07-23T23:18:17.332Z,57.61
2018-07-23T23:20:46.403Z,58.27
2018-07-23T23:23:15.520Z,58.07
2018-07-23T23:25:44.604Z,58.31
2018-07-23T23:28:13.700Z,58.25
2018-07-23T23:30:42.812Z,57.94
2018-07-23T23:33:11.896Z,57.88
2018-07-23T23:35:40.983Z,58.48
2018-07-23T23:38:10.099Z,59.22
2018-07-23T23:40:39.183Z,59.08
2018-07-23T23:43:08.832Z,59.98
2018-07-23T23:45:37.931Z,59.96
2018-07-23T23:48:07.060Z,60.13
2018-07-23T23:50:36.132Z,60.65
2018-07-23T23:53:05.240Z,61.03
2018-07-23T23:55:34.312Z,60.92
2018-07-23T23:58:03.407Z,60.91
